Tuesday, February 20, 2018, 3:44 PM GMT
Back to Local

CYVO, Val D'Or, Que.

Location: , , Canada Lat: 48.067
Local Time: 3:44 PM GMT (15:44 GMT) Lon: -77.783
Time Zone: GMT Elev: 1105 ft

Show me the last for .
Show Decoded

2018-02-20 15:00 METAR CYVO 201500Z 07007G16KT 15SM FEW012 OVC040 M10/M13 A3011 RMK SF1SC7 SLP228
                 =
2018-02-20 14:00 METAR CYVO 201400Z 06008KT 15SM OVC040 M11/M14 A3014 RMK SC8 SLP239 =
2018-02-20 13:00 METAR CYVO 201300Z 04008KT 15SM OVC048 M13/M15 A3016 RMK ST8 SLP247 =
2018-02-20 12:00 METAR CYVO 201200Z 03009KT 15SM OVC065 M14/M16 A3018 RMK SC8 SLP255 =
2018-02-20 11:00 METAR CYVO 201100Z 04009KT 15SM OVC070 M14/M16 A3020 RMK AC8 SLP260 =
2018-02-20 10:00 METAR CYVO 201000Z AUTO 03011G16KT 9SM OVC055 M15/M16 A3023 RMK SLP270 =
2018-02-20 09:56 METAR CYVO 200956Z AUTO 03009G16KT 9SM OVC055 M15/M16 A3023 RMK SLP268 =
2018-02-20 09:00 METAR CYVO 200900Z AUTO 04010KT 9SM -SN BKN039 BKN065 OVC086 M15/M16 A3020 RMK
                 PRESFR SLP256 =
2018-02-20 08:00 METAR CYVO 200800Z AUTO 03008G15KT 9SM -SN FEW032 OVC065 M15/M17 A3023 RMK
                 SLP267 =
2018-02-20 07:59 METAR CYVO 200759Z AUTO 03010G15KT 9SM -SN FEW032 OVC065 M15/M17 A3024 RMK
                 SLP268 =
2018-02-20 07:00 METAR CYVO 200700Z AUTO 03013KT 9SM OVC032 M14/M16 A3023 RMK SLP267 =
2018-02-20 06:19 METAR CYVO 200619Z AUTO 02011G16KT 9SM SCT018 OVC075 M14/M16 A3023 RMK SLP265 =
2018-02-20 06:00 METAR CYVO 200600Z AUTO 01010G16KT 9SM OVC018 M14/M16 A3023 RMK PRESRR SLP266 =
2018-02-20 05:22 METAR CYVO 200522Z AUTO 03012G17KT 9SM OVC020 M14/M16 A3021 RMK SLP257 =
2018-02-20 05:11 METAR CYVO 200511Z AUTO 03011G18KT 9SM -SN OVC020 M14/M16 A3022 RMK SLP261 =
2018-02-20 05:00 METAR CYVO 200500Z AUTO 03012G18KT 9SM OVC020 M14/M15 A3021 RMK SLP257 =
2018-02-20 04:00 METAR CYVO 200400Z AUTO 02010G16KT 9SM OVC022 M13/M15 A3023 RMK SLP266 =
2018-02-20 03:33 METAR CYVO 200333Z AUTO 02011G16KT 9SM BKN020 OVC033 M13/M15 A3022 RMK SLP263 =
2018-02-20 03:00 METAR CYVO 200300Z 02012KT 15SM -SN DRSN OVC031 M13/M15 A3021 RMK SC8 LAST STFD
                 OBS/NEXT 201100UTC SLP259 =
2018-02-20 02:00 METAR CYVO 200200Z 01014KT 10SM -SN DRSN OVC033 M13/M15 A3020 RMK SC8 SLP257 =
2018-02-20 01:00 METAR CYVO 200100Z 01014KT 5SM -SN DRSN OVC033 M12/M14 A3019 RMK SC8 SLP251 =
2018-02-20 00:00 METAR CYVO 200000Z 01012G19KT 5SM -SN DRSN OVC031 M12/M13 A3018 RMK SC8 SLP248 =
2018-02-19 23:00 METAR CYVO 192300Z 01015KT 2SM -SN OVC016 M10/M12 A3015 RMK SC8 SLP236 =
2018-02-19 22:54 METAR CYVO 192254Z 01014G20KT 2 1/2SM -SN OVC016 M10/M12 A3015 RMK SC8 SLP238 =
2018-02-19 22:00 METAR CYVO 192200Z 36018KT 12SM -SN OVC016 M08/M10 A3011 RMK SC8 SLP222 =
2018-02-19 21:19 METAR CYVO 192119Z 34014KT 15SM -SN OVC018 M05/M07 A3009 RMK SC8 PRESRR SLP213 =
2018-02-19 21:00 METAR CYVO 192100Z 34015G20KT 15SM OVC022 M03/M05 A3006 RMK SC8 PRESRR SLP205 =
2018-02-19 20:00 METAR CYVO 192000Z 31004KT 270V330 15SM OVC024 01/M04 A3003 RMK SC8 SLP193 =
2018-02-19 19:00 METAR CYVO 191900Z 29004KT 210V310 15SM OVC026 01/M04 A3002 RMK SC8 SLP186 =
2018-02-19 18:00 METAR CYVO 191800Z 23005KT 180V260 15SM SCT026 OVC075 01/M04 A2999 RMK SC3AC5
                 SLP177 =
2018-02-19 17:00 METAR CYVO 191700Z 20008KT 15SM FEW042 OVC075 00/M04 A2999 RMK SC1AC7 SLP180 =
2018-02-19 16:00 METAR CYVO 191600Z 19011G16KT 15SM FEW044 OVC080 M01/M05 A2998 RMK SC2AC6 SLP177
                 =

Support USWX by starting your Amazon purchase here.